createdAt,value
2024-03-28T00:01:28.600Z,7.50
2024-03-28T00:03:59.779Z,9.20
2024-03-28T00:06:30.955Z,7.90
2024-03-28T00:09:03.849Z,10.00
2024-03-28T00:11:35.264Z,9.00
2024-03-28T00:14:07.596Z,15.80
2024-03-28T00:16:38.822Z,12.10
2024-03-28T00:19:11.309Z,8.50
2024-03-28T00:21:42.858Z,10.80
2024-03-28T00:24:14.015Z,9.20
2024-03-28T00:26:46.671Z,11.20
2024-03-28T00:29:18.030Z,14.50
2024-03-28T00:31:50.685Z,12.30
2024-03-28T00:34:21.872Z,12.50
2024-03-28T00:36:52.964Z,10.00
2024-03-28T00:39:24.133Z,11.50
2024-03-28T00:41:55.330Z,11.90
2024-03-28T00:44:26.532Z,12.10
2024-03-28T00:46:57.618Z,13.10
2024-03-28T00:49:28.742Z,11.80
2024-03-28T00:51:59.815Z,10.10
2024-03-28T00:54:30.928Z,14.00
2024-03-28T00:57:01.991Z,10.00
2024-03-28T00:59:32.921Z,11.20
2024-03-28T01:02:04.111Z,13.10
2024-03-28T01:04:35.062Z,10.80
2024-03-28T01:07:06.473Z,10.40
2024-03-28T01:09:41.119Z,9.40
2024-03-28T01:12:13.937Z,10.20
2024-03-28T01:14:45.335Z,11.70
2024-03-28T01:17:16.759Z,13.30
2024-03-28T01:19:49.071Z,13.20
2024-03-28T01:22:20.522Z,10.70
2024-03-28T01:24:53.383Z,11.50
2024-03-28T01:27:24.638Z,12.70
2024-03-28T01:29:57.171Z,10.60
2024-03-28T01:32:28.062Z,9.40
2024-03-28T01:34:59.157Z,11.40
2024-03-28T01:37:30.134Z,9.90
2024-03-28T01:40:02.138Z,12.90
2024-03-28T01:42:33.390Z,11.30
2024-03-28T01:45:05.456Z,13.60
2024-03-28T01:50:13.871Z,11.00
2024-03-28T01:52:45.027Z,9.80
2024-03-28T01:55:16.360Z,11.20
2024-03-28T01:57:48.823Z,9.30
2024-03-28T02:00:22.072Z,8.40
2024-03-28T02:02:53.236Z,11.60
2024-03-28T02:05:24.830Z,10.80
2024-03-28T02:07:56.026Z,10.60
2024-03-28T02:10:28.272Z,10.60
2024-03-28T02:12:59.191Z,9.50
2024-03-28T02:15:30.273Z,12.00
2024-03-28T02:18:01.155Z,11.50
2024-03-28T02:20:32.174Z,10.70
2024-03-28T02:23:03.258Z,10.60
2024-03-28T02:25:34.464Z,12.00
2024-03-28T02:28:05.613Z,13.30
2024-03-28T02:30:36.625Z,13.90
2024-03-28T02:33:08.228Z,10.60
2024-03-28T02:35:39.475Z,11.10
2024-03-28T02:38:10.387Z,11.60
2024-03-28T02:40:41.562Z,10.80
2024-03-28T02:43:12.638Z,14.30
2024-03-28T02:45:43.970Z,10.00
2024-03-28T02:48:15.171Z,10.90
2024-03-28T02:50:46.271Z,10.00
2024-03-28T02:53:17.552Z,9.70
2024-03-28T02:55:53.875Z,12.00
2024-03-28T02:58:25.412Z,11.60
2024-03-28T03:00:57.739Z,12.00
2024-03-28T03:03:28.735Z,10.90
2024-03-28T03:06:00.149Z,14.90
2024-03-28T03:08:31.115Z,11.40
2024-03-28T03:11:02.073Z,9.00
2024-03-28T03:13:33.125Z,9.50
2024-03-28T03:16:05.128Z,10.80
2024-03-28T03:18:36.251Z,8.90
2024-03-28T03:21:10.104Z,14.70
2024-03-28T03:23:49.517Z,11.40
2024-03-28T03:26:24.118Z,11.60
2024-03-28T03:29:23.992Z,11.00
2024-03-28T03:32:12.765Z,12.20
2024-03-28T03:34:44.847Z,10.40
2024-03-28T03:37:18.354Z,12.30
2024-03-28T03:39:54.573Z,9.40
2024-03-28T03:42:25.935Z,12.70
2024-03-28T03:44:57.142Z,12.00
2024-03-28T03:47:28.230Z,15.90
2024-03-28T03:49:59.258Z,11.90
2024-03-28T03:52:30.385Z,12.80
2024-03-28T03:55:01.398Z,10.40
2024-03-28T03:57:32.663Z,11.10
2024-03-28T04:00:05.240Z,11.90
2024-03-28T04:02:36.228Z,11.20
2024-03-28T04:05:08.243Z,15.40
2024-03-28T04:07:39.182Z,13.70
2024-03-28T04:10:11.541Z,11.20
2024-03-28T04:12:42.643Z,12.80
2024-03-28T04:15:13.773Z,14.20
2024-03-28T04:17:45.340Z,14.30
2024-03-28T04:20:16.679Z,12.90
2024-03-28T04:22:47.746Z,12.10
2024-03-28T04:25:20.620Z,10.90
2024-03-28T04:27:51.820Z,15.10
2024-03-28T04:30:30.581Z,12.50
2024-03-28T04:33:01.845Z,14.90
2024-03-28T04:35:33.002Z,14.50
2024-03-28T04:38:04.037Z,12.90
2024-03-28T04:40:35.699Z,11.60
2024-03-28T04:43:07.037Z,9.50
2024-03-28T04:45:38.189Z,13.30
2024-03-28T04:48:10.241Z,18.00
2024-03-28T04:50:43.836Z,14.70
2024-03-28T04:53:15.155Z,17.80
2024-03-28T04:55:46.428Z,13.10
2024-03-28T04:58:17.461Z,18.50
2024-03-28T05:00:48.377Z,11.40
2024-03-28T05:03:19.233Z,12.90
2024-03-28T05:05:51.471Z,13.70
2024-03-28T05:08:23.034Z,12.80
2024-03-28T05:10:54.274Z,13.00
2024-03-28T05:13:25.432Z,10.90
2024-03-28T05:15:56.465Z,11.20
2024-03-28T05:18:27.496Z,12.60
2024-03-28T05:20:58.634Z,13.50
2024-03-28T05:23:29.570Z,13.50
2024-03-28T05:26:00.721Z,9.30
2024-03-28T05:28:32.208Z,20.00
2024-03-28T05:31:03.832Z,16.30
2024-03-28T05:33:35.050Z,11.10
2024-03-28T05:36:07.170Z,12.10
2024-03-28T05:38:38.187Z,15.90
2024-03-28T05:41:09.312Z,12.40
2024-03-28T05:43:40.618Z,11.10
2024-03-28T05:46:12.024Z,13.60
2024-03-28T05:48:43.045Z,12.60
2024-03-28T05:51:16.962Z,17.80
2024-03-28T05:53:50.001Z,12.50
2024-03-28T05:56:21.187Z,17.80
2024-03-28T05:58:52.383Z,15.80
2024-03-28T06:01:23.519Z,12.00
2024-03-28T06:03:55.547Z,17.40
2024-03-28T06:06:27.042Z,12.20
2024-03-28T06:08:58.419Z,12.70
2024-03-28T06:11:29.677Z,11.40
2024-03-28T06:14:11.629Z,11.00
2024-03-28T06:16:42.963Z,19.70
2024-03-28T06:19:14.557Z,13.00
2024-03-28T06:21:49.075Z,12.10
2024-03-28T06:24:20.117Z,15.60
2024-03-28T06:26:54.064Z,13.60
2024-03-28T06:29:25.950Z,12.60
2024-03-28T06:31:57.197Z,17.00
2024-03-28T06:34:28.524Z,15.60
2024-03-28T06:36:59.769Z,11.60
2024-03-28T06:39:31.808Z,20.20
2024-03-28T06:42:04.192Z,16.80
2024-03-28T06:44:35.438Z,12.40
2024-03-28T06:47:06.910Z,17.60
2024-03-28T06:49:38.121Z,14.20
2024-03-28T06:52:11.202Z,13.60
2024-03-28T06:54:43.010Z,14.30
2024-03-28T06:57:14.372Z,24.80
2024-03-28T06:59:45.621Z,20.70
2024-03-28T07:02:17.049Z,22.00
2024-03-28T07:04:48.768Z,17.40
2024-03-28T07:07:20.443Z,18.40
2024-03-28T07:09:52.668Z,19.40
2024-03-28T07:12:26.356Z,22.20
2024-03-28T07:14:58.965Z,15.90
2024-03-28T07:17:32.121Z,18.50
2024-03-28T07:20:04.606Z,16.90
2024-03-28T07:22:37.211Z,21.70
2024-03-28T07:25:10.080Z,20.80
2024-03-28T07:27:41.396Z,22.20
2024-03-28T07:30:14.922Z,20.30
2024-03-28T07:32:49.872Z,17.30
2024-03-28T07:35:21.359Z,20.80
2024-03-28T07:37:52.903Z,23.80
2024-03-28T07:40:24.368Z,20.00
2024-03-28T07:42:55.622Z,16.20
2024-03-28T07:45:27.017Z,17.70
2024-03-28T07:47:58.482Z,21.90
2024-03-28T07:50:29.853Z,18.40
2024-03-28T07:53:01.175Z,21.10
2024-03-28T07:55:32.505Z,19.60
2024-03-28T07:58:03.915Z,21.30
2024-03-28T08:00:35.867Z,18.20
2024-03-28T08:03:07.686Z,16.90
2024-03-28T08:05:39.243Z,23.90
2024-03-28T08:08:11.567Z,23.20
2024-03-28T08:10:42.983Z,17.20
2024-03-28T08:13:14.552Z,22.90
2024-03-28T08:15:45.913Z,18.30
2024-03-28T08:18:21.487Z,22.20
2024-03-28T08:20:53.228Z,19.30
2024-03-28T08:23:24.934Z,24.90
2024-03-28T08:25:58.062Z,19.80
2024-03-28T08:28:30.692Z,21.40
2024-03-28T08:31:07.667Z,22.20
2024-03-28T08:33:40.148Z,24.90
2024-03-28T08:36:15.975Z,19.80
2024-03-28T08:38:47.885Z,21.60
2024-03-28T08:41:19.068Z,18.50
2024-03-28T08:43:51.640Z,21.50
2024-03-28T08:46:23.133Z,22.40
2024-03-28T08:48:55.676Z,25.70
2024-03-28T08:51:26.887Z,19.50
2024-03-28T08:54:27.175Z,22.20
2024-03-28T08:56:59.558Z,18.50
2024-03-28T08:59:30.832Z,21.40
2024-03-28T09:02:02.121Z,21.40
2024-03-28T09:04:33.506Z,15.60
2024-03-28T09:07:05.003Z,15.40
2024-03-28T09:09:37.309Z,18.30
2024-03-28T09:12:09.719Z,23.50
2024-03-28T09:14:41.199Z,16.70
2024-03-28T09:17:13.077Z,21.60
2024-03-28T09:19:44.222Z,22.50
2024-03-28T09:22:15.991Z,23.60
2024-03-28T09:24:48.160Z,25.20
2024-03-28T09:27:20.207Z,22.80
2024-03-28T09:29:53.470Z,23.90
2024-03-28T09:32:25.129Z,22.50
2024-03-28T09:34:57.837Z,26.10
2024-03-28T09:37:29.626Z,20.70
2024-03-28T09:40:04.439Z,20.40
2024-03-28T09:42:39.189Z,17.60
2024-03-28T09:45:14.458Z,22.00
2024-03-28T09:47:46.320Z,20.50
2024-03-28T09:50:25.359Z,29.00
2024-03-28T09:52:59.786Z,23.50
2024-03-28T09:55:31.173Z,23.40
2024-03-28T09:58:04.864Z,25.60
2024-03-28T10:00:37.768Z,28.10
2024-03-28T10:03:20.353Z,19.60
2024-03-28T10:05:53.101Z,28.40
2024-03-28T10:08:25.843Z,27.20
2024-03-28T10:10:57.951Z,26.00
2024-03-28T10:13:37.210Z,22.70
2024-03-28T10:16:15.660Z,31.00
2024-03-28T10:18:48.751Z,20.40
2024-03-28T10:21:23.691Z,29.90
2024-03-28T10:23:54.770Z,26.60
2024-03-28T10:26:30.359Z,25.20
2024-03-28T10:29:02.418Z,26.00
2024-03-28T10:31:34.024Z,27.80
2024-03-28T10:34:06.595Z,23.20
2024-03-28T10:36:39.435Z,26.20
2024-03-28T10:39:13.178Z,26.60
2024-03-28T10:41:48.440Z,29.20
2024-03-28T10:44:20.603Z,29.60
2024-03-28T10:46:54.612Z,25.00
2024-03-28T10:49:34.499Z,27.40
2024-03-28T10:52:16.006Z,22.90
2024-03-28T10:54:49.870Z,22.20
2024-03-28T10:57:24.263Z,31.20
2024-03-28T10:59:58.137Z,25.70
2024-03-28T11:02:32.133Z,23.00
2024-03-28T11:05:04.527Z,19.10
2024-03-28T11:07:37.351Z,23.80
2024-03-28T11:10:11.132Z,27.20
2024-03-28T11:12:42.668Z,29.40
2024-03-28T11:15:23.077Z,22.60
2024-03-28T11:17:54.673Z,27.00
2024-03-28T11:20:26.789Z,19.30
2024-03-28T11:23:06.767Z,19.30
2024-03-28T11:25:40.538Z,17.10
2024-03-28T11:28:12.953Z,20.50
2024-03-28T11:30:58.385Z,19.40
2024-03-28T11:33:38.144Z,27.80
2024-03-28T11:36:10.689Z,25.40
2024-03-28T11:38:43.014Z,21.50
2024-03-28T11:41:14.218Z,21.80
2024-03-28T11:43:47.633Z,20.10
2024-03-28T11:46:20.582Z,19.20
2024-03-28T11:48:58.784Z,21.90
2024-03-28T11:51:29.865Z,26.90
2024-03-28T11:54:04.830Z,26.30
2024-03-28T11:56:36.929Z,24.30
2024-03-28T11:59:20.191Z,15.20
2024-03-28T12:02:04.611Z,21.90
2024-03-28T12:04:37.300Z,25.80
2024-03-28T12:07:09.233Z,15.80
2024-03-28T12:09:42.011Z,22.60
2024-03-28T12:12:14.202Z,18.80
2024-03-28T12:14:45.274Z,17.90
2024-03-28T12:17:18.196Z,24.00
2024-03-28T12:19:49.867Z,20.30
2024-03-28T12:22:21.791Z,18.30
2024-03-28T12:24:53.568Z,22.00
2024-03-28T12:27:25.544Z,23.70
2024-03-28T12:30:06.191Z,17.20
2024-03-28T12:32:37.537Z,16.60
2024-03-28T12:35:10.451Z,19.30
2024-03-28T12:37:43.164Z,27.30
2024-03-28T12:40:19.717Z,16.00
2024-03-28T12:42:51.451Z,22.70
2024-03-28T12:45:24.753Z,19.80
2024-03-28T12:47:56.399Z,15.00
2024-03-28T12:50:27.910Z,16.90
2024-03-28T12:52:59.749Z,15.00
2024-03-28T12:55:30.959Z,14.80
2024-03-28T12:58:03.239Z,16.20
2024-03-28T13:00:34.336Z,18.00
2024-03-28T13:03:06.386Z,18.40
2024-03-28T13:05:38.089Z,16.20
2024-03-28T13:08:10.487Z,20.40
2024-03-28T13:10:41.571Z,16.70
2024-03-28T13:13:13.820Z,13.50
2024-03-28T13:15:46.382Z,11.10
2024-03-28T13:18:18.440Z,7.70
2024-03-28T13:20:51.014Z,4.20
2024-03-28T13:23:22.782Z,4.90
2024-03-28T13:26:05.701Z,6.10
2024-03-28T13:28:43.543Z,13.70
2024-03-28T13:31:16.111Z,4.40
2024-03-28T13:33:47.458Z,6.20
2024-03-28T13:36:18.574Z,4.40
2024-03-28T13:38:49.723Z,4.60
2024-03-28T13:41:20.934Z,5.00
2024-03-28T13:43:53.885Z,6.20
2024-03-28T13:46:25.703Z,7.20
2024-03-28T13:48:57.151Z,4.60
2024-03-28T13:51:28.939Z,7.10
2024-03-28T13:54:01.751Z,3.20
2024-03-28T13:56:35.221Z,3.00
2024-03-28T13:59:06.857Z,2.60
2024-03-28T14:01:40.377Z,3.00
2024-03-28T14:04:11.783Z,2.80
2024-03-28T14:06:45.113Z,2.90
2024-03-28T14:09:16.737Z,5.20
2024-03-28T14:11:48.658Z,5.00
2024-03-28T14:14:20.167Z,3.80
2024-03-28T14:16:52.464Z,4.60
2024-03-28T14:19:23.715Z,3.30
2024-03-28T14:21:55.454Z,2.90
2024-03-28T14:24:26.834Z,5.60
2024-03-28T14:26:59.249Z,4.90
2024-03-28T14:29:30.425Z,6.40
2024-03-28T14:32:02.933Z,5.20
2024-03-28T14:34:35.554Z,2.80
2024-03-28T14:37:10.058Z,2.90
2024-03-28T14:39:42.205Z,3.50
2024-03-28T14:42:13.162Z,2.70
2024-03-28T14:44:47.017Z,2.40
2024-03-28T14:47:18.963Z,2.80
2024-03-28T14:49:53.675Z,3.10
2024-03-28T14:52:24.979Z,2.70
2024-03-28T14:54:56.966Z,4.00
2024-03-28T14:57:29.420Z,2.70
2024-03-28T15:00:01.285Z,2.40
2024-03-28T15:02:32.489Z,2.60
2024-03-28T15:05:04.762Z,2.70
2024-03-28T15:07:36.535Z,3.60
2024-03-28T15:10:08.824Z,4.20
2024-03-28T15:12:40.345Z,4.10
2024-03-28T15:15:12.946Z,3.60
2024-03-28T15:17:43.982Z,3.90
2024-03-28T15:20:32.394Z,4.70
2024-03-28T15:23:04.019Z,4.70
2024-03-28T15:25:36.393Z,4.00
2024-03-28T15:28:09.302Z,5.00
2024-03-28T15:30:42.493Z,5.10
2024-03-28T15:33:13.853Z,4.90
2024-03-28T15:35:46.462Z,3.30
2024-03-28T15:38:18.326Z,3.90
2024-03-28T15:40:56.124Z,3.90
2024-03-28T15:43:27.426Z,3.60
2024-03-28T15:45:58.934Z,3.40
2024-03-28T15:48:31.430Z,3.60
2024-03-28T15:51:03.341Z,3.20
2024-03-28T15:53:36.273Z,6.00
2024-03-28T15:56:09.310Z,4.00
2024-03-28T15:58:41.535Z,3.10
2024-03-28T16:01:17.256Z,5.10
2024-03-28T16:03:48.753Z,3.70
2024-03-28T16:06:22.544Z,6.20
2024-03-28T16:08:53.781Z,5.00
2024-03-28T16:11:29.645Z,4.80
2024-03-28T16:14:00.744Z,7.40
2024-03-28T16:16:32.181Z,3.50
2024-03-28T16:19:03.375Z,3.90
2024-03-28T16:21:34.689Z,5.00
2024-03-28T16:24:07.236Z,5.50
2024-03-28T16:26:38.612Z,5.50
2024-03-28T16:29:11.169Z,7.90
2024-03-28T16:31:43.615Z,6.40
2024-03-28T16:34:14.850Z,5.70
2024-03-28T16:36:46.229Z,4.40
2024-03-28T16:39:17.366Z,5.60
2024-03-28T16:41:49.091Z,5.70
2024-03-28T16:44:20.677Z,7.90
2024-03-28T16:46:51.821Z,6.50
2024-03-28T16:49:23.161Z,6.10
2024-03-28T16:51:56.118Z,7.70
2024-03-28T16:54:27.615Z,11.10
2024-03-28T16:56:58.967Z,11.20
2024-03-28T16:59:30.093Z,9.40
2024-03-28T17:02:01.216Z,11.10
2024-03-28T17:04:32.436Z,12.20
2024-03-28T17:07:03.738Z,12.20
2024-03-28T17:09:35.050Z,12.20
2024-03-28T17:12:08.358Z,11.40
2024-03-28T17:14:40.448Z,12.40
2024-03-28T17:17:11.552Z,11.40
2024-03-28T17:19:42.749Z,12.60
2024-03-28T17:22:14.018Z,12.80
2024-03-28T17:24:45.871Z,9.40
2024-03-28T17:27:19.577Z,13.40
2024-03-28T17:29:50.954Z,12.60
2024-03-28T17:32:22.290Z,10.40
2024-03-28T17:34:56.093Z,12.90
2024-03-28T17:37:28.886Z,11.50
2024-03-28T17:40:00.313Z,9.60
2024-03-28T17:42:37.160Z,12.40
2024-03-28T17:45:12.593Z,11.90
2024-03-28T17:47:46.399Z,9.10
2024-03-28T17:50:19.361Z,8.70
2024-03-28T17:52:56.253Z,13.00
2024-03-28T17:55:32.100Z,12.40
2024-03-28T17:58:05.692Z,12.40
2024-03-28T18:00:37.480Z,14.50
2024-03-28T18:03:09.209Z,19.50
2024-03-28T18:05:43.505Z,14.40
2024-03-28T18:08:15.032Z,14.90
2024-03-28T18:10:53.075Z,15.80
2024-03-28T18:13:25.366Z,17.70
2024-03-28T18:15:56.661Z,18.70
2024-03-28T18:18:28.196Z,22.00
2024-03-28T18:21:04.758Z,17.80
2024-03-28T18:23:39.636Z,18.80
2024-03-28T18:26:10.996Z,21.40
2024-03-28T18:28:42.556Z,20.80
2024-03-28T18:31:14.143Z,31.00
2024-03-28T18:33:45.261Z,38.30
2024-03-28T18:36:16.476Z,46.20
2024-03-28T18:38:47.485Z,45.80
2024-03-28T18:41:19.939Z,42.20
2024-03-28T18:43:51.583Z,35.20
2024-03-28T18:46:22.720Z,40.20
2024-03-28T18:48:53.982Z,32.90
2024-03-28T18:51:25.061Z,33.10
2024-03-28T18:53:56.134Z,33.40
2024-03-28T18:56:28.735Z,31.80
2024-03-28T18:59:00.037Z,26.90
2024-03-28T19:01:31.730Z,27.20
2024-03-28T19:04:02.753Z,29.70
2024-03-28T19:06:33.664Z,26.40
2024-03-28T19:09:04.647Z,27.30
2024-03-28T19:11:35.721Z,24.50
2024-03-28T19:14:09.249Z,24.30
2024-03-28T19:16:40.396Z,24.00
2024-03-28T19:19:11.668Z,24.90
2024-03-28T19:21:42.922Z,29.20
2024-03-28T19:24:14.449Z,26.00
2024-03-28T19:26:46.228Z,29.60
2024-03-28T19:29:19.200Z,23.80
2024-03-28T19:31:51.588Z,27.80
2024-03-28T19:34:25.026Z,26.60
2024-03-28T19:36:58.140Z,26.10
2024-03-28T19:39:31.623Z,26.70
2024-03-28T19:42:04.972Z,27.50
2024-03-28T19:44:37.764Z,31.80
2024-03-28T19:47:11.610Z,29.80
2024-03-28T19:49:44.202Z,25.90
2024-03-28T19:52:16.652Z,29.20
2024-03-28T19:54:48.716Z,26.30
2024-03-28T19:57:20.972Z,27.60
2024-03-28T20:00:01.245Z,22.50
2024-03-28T20:02:34.430Z,22.90
2024-03-28T20:05:08.213Z,21.50
2024-03-28T20:07:50.161Z,24.40
2024-03-28T20:10:24.549Z,21.40
2024-03-28T20:12:58.058Z,25.20
2024-03-28T20:15:32.319Z,25.50
2024-03-28T20:18:04.488Z,22.10
2024-03-28T20:20:38.763Z,22.80
2024-03-28T20:23:12.939Z,21.90
2024-03-28T20:25:45.629Z,23.60
2024-03-28T20:28:20.220Z,21.40
2024-03-28T20:33:27.430Z,19.30
2024-03-28T20:36:01.104Z,21.40
2024-03-28T20:38:32.402Z,19.20
2024-03-28T20:41:04.701Z,17.80
2024-03-28T20:43:35.875Z,20.60
2024-03-28T20:46:13.357Z,20.00
2024-03-28T20:48:45.415Z,18.50
2024-03-28T20:51:19.688Z,16.90
2024-03-28T20:53:53.389Z,16.30
2024-03-28T20:56:25.253Z,15.40
2024-03-28T20:58:57.249Z,17.00
2024-03-28T21:01:29.808Z,16.30
2024-03-28T21:04:01.428Z,16.30
2024-03-28T21:06:50.184Z,16.90
2024-03-28T21:09:40.971Z,16.30
2024-03-28T21:12:15.208Z,14.70
2024-03-28T21:14:47.429Z,18.00
2024-03-28T21:17:19.094Z,17.40
2024-03-28T21:19:51.944Z,22.60
2024-03-28T21:22:23.153Z,20.20
2024-03-28T21:24:54.215Z,21.00
2024-03-28T21:27:25.976Z,21.20
2024-03-28T21:29:57.546Z,19.10
2024-03-28T21:32:29.453Z,17.70
2024-03-28T21:35:06.365Z,22.10
2024-03-28T21:37:39.246Z,17.10
2024-03-28T21:40:12.468Z,25.60
2024-03-28T21:42:45.938Z,23.80
2024-03-28T21:45:19.850Z,29.50
2024-03-28T21:47:55.282Z,26.80
2024-03-28T21:50:28.741Z,21.00
2024-03-28T21:53:00.577Z,17.10
2024-03-28T21:55:32.551Z,17.80
2024-03-28T21:58:04.655Z,16.50
2024-03-28T22:00:37.860Z,15.80
2024-03-28T22:03:09.472Z,17.20
2024-03-28T22:05:42.346Z,14.30
2024-03-28T22:08:13.772Z,16.50
2024-03-28T22:10:45.069Z,20.40
2024-03-28T22:13:16.292Z,18.10
2024-03-28T22:15:56.810Z,18.00
2024-03-28T22:18:29.027Z,18.70
2024-03-28T22:21:00.594Z,18.20
2024-03-28T22:23:32.359Z,14.50
2024-03-28T22:26:03.786Z,17.90
2024-03-28T22:28:35.116Z,15.20
2024-03-28T22:31:07.117Z,14.50
2024-03-28T22:33:38.387Z,12.20
2024-03-28T22:36:11.451Z,12.10
2024-03-28T22:38:43.384Z,12.10
2024-03-28T22:41:16.158Z,13.20
2024-03-28T22:43:47.476Z,10.20
2024-03-28T22:46:19.160Z,10.60
2024-03-28T22:48:52.127Z,9.70
2024-03-28T22:51:23.496Z,10.20
2024-03-28T22:53:56.245Z,8.10
2024-03-28T22:56:29.418Z,7.00
2024-03-28T22:59:01.256Z,8.60
2024-03-28T23:01:33.921Z,6.70
2024-03-28T23:04:06.665Z,9.60
2024-03-28T23:06:38.518Z,8.50
2024-03-28T23:09:10.677Z,7.20
2024-03-28T23:11:42.011Z,7.00
2024-03-28T23:14:13.619Z,7.80
2024-03-28T23:16:44.674Z,8.40
2024-03-28T23:19:16.178Z,5.60
2024-03-28T23:21:48.160Z,5.90
2024-03-28T23:24:19.467Z,4.40
2024-03-28T23:26:51.299Z,4.80
2024-03-28T23:29:23.383Z,4.40
2024-03-28T23:31:54.716Z,4.50
2024-03-28T23:34:26.222Z,5.20
2024-03-28T23:36:59.047Z,3.50
2024-03-28T23:39:31.376Z,4.80
2024-03-28T23:42:02.576Z,4.20
2024-03-28T23:44:34.069Z,4.70
2024-03-28T23:47:05.297Z,3.90
2024-03-28T23:49:36.580Z,3.90
2024-03-28T23:52:08.976Z,5.50
2024-03-28T23:54:40.516Z,3.80
2024-03-28T23:57:11.691Z,3.50
2024-03-28T23:59:42.839Z,2.60
